Time;durP1;ratioP1;P1;durP2;ratioP2;P2;SDS_P1;SDS_P2;PMS_P1;PMS_P2;Temp;Humidity;BMP_temperature;BMP_pressure;BME280_temperature;BME280_humidity;BME280_pressure;Samples;Min_cycle;Max_cycle;Signal;HPM_P1;HPM_P2
2023/04/08 00:00:42;;;;;;;9.98;6.40;;;;;;;;;;4965114;28;20034;-56
2023/04/08 00:03:07;;;;;;;10.85;8.27;;;;;;;;;;4964553;28;20514;-57
2023/04/08 00:05:33;;;;;;;9.30;6.93;;;;;;;;;;4966319;28;20124;-57
2023/04/08 00:07:58;;;;;;;10.73;7.10;;;;;;;;;;4963030;28;20031;-54
2023/04/08 00:10:25;;;;;;;11.65;7.95;;;;;;;;;;4963824;28;20027;-59
2023/04/08 00:12:50;;;;;;;14.90;7.60;;;;;;;;;;4980292;28;20514;-54
2023/04/08 00:15:16;;;;;;;11.40;8.10;;;;;;;;;;4963105;28;20122;-55
2023/04/08 00:17:41;;;;;;;12.18;7.97;;;;;;;;;;4966988;28;20038;-53
2023/04/08 00:20:06;;;;;;;11.70;7.78;;;;;;;;;;4963219;28;20038;-54
2023/04/08 00:22:32;;;;;;;11.77;7.43;;;;;;;;;;4967924;28;20479;-57
2023/04/08 00:24:57;;;;;;;9.57;6.40;;;;;;;;;;4964697;28;20035;-52
2023/04/08 00:27:24;;;;;;;15.05;9.00;;;;;;;;;;4965289;28;20031;-56
2023/04/08 00:29:50;;;;;;;14.05;9.90;;;;;;;;;;4968234;28;20057;-54
2023/04/08 00:32:15;;;;;;;15.48;10.38;;;;;;;;;;4978477;28;20101;-57
2023/04/08 00:34:40;;;;;;;19.52;11.20;;;;;;;;;;4968693;28;20077;-55
2023/04/08 00:37:06;;;;;;;14.02;9.38;;;;;;;;;;4963393;28;20546;-59
2023/04/08 00:39:31;;;;;;;13.40;10.10;;;;;;;;;;4966370;28;20038;-58
2023/04/08 00:41:57;;;;;;;10.70;8.27;;;;;;;;;;4966820;28;20476;-54
2023/04/08 00:44:22;;;;;;;12.38;9.40;;;;;;;;;;4982430;28;20030;-57
2023/04/08 00:46:48;;;;;;;12.30;8.52;;;;;;;;;;4969313;28;20066;-52
2023/04/08 00:49:13;;;;;;;12.07;8.73;;;;;;;;;;4962242;28;20030;-54
2023/04/08 00:51:39;;;;;;;12.90;9.18;;;;;;;;;;4963824;28;20365;-58
2023/04/08 00:54:06;;;;;;;13.20;9.43;;;;;;;;;;4983401;28;20145;-56
2023/04/08 00:56:31;;;;;;;17.92;10.88;;;;;;;;;;4965020;28;20046;-54
2023/04/08 00:59:01;;;;;;;14.43;9.75;;;;;;;;;;4963728;28;20641;-51
2023/04/08 01:01:29;;;;;;;13.13;9.77;;;;;;;;;;4962017;28;20035;-50
2023/04/08 01:04:08;;;;;;;11.90;9.07;;;;;;;;;;4972831;28;20038;-57
2023/04/08 01:06:55;;;;;;;14.15;9.85;;;;;;;;;;4962153;28;20042;-52
2023/04/08 01:09:22;;;;;;;14.27;9.50;;;;;;;;;;4973121;28;20047;-54
2023/04/08 01:11:49;;;;;;;14.52;9.23;;;;;;;;;;4967534;28;20030;-52
2023/04/08 01:14:18;;;;;;;12.55;8.98;;;;;;;;;;4965773;28;20043;-52
2023/04/08 01:16:44;;;;;;;12.98;9.65;;;;;;;;;;4981642;28;20046;-53
2023/04/08 01:19:16;;;;;;;13.67;9.17;;;;;;;;;;4962171;28;20096;-57
2023/04/08 01:21:42;;;;;;;13.93;9.50;;;;;;;;;;4966529;28;20273;-53
2023/04/08 01:24:12;;;;;;;12.13;8.82;;;;;;;;;;4965901;28;20042;-52
2023/04/08 01:26:37;;;;;;;15.13;10.38;;;;;;;;;;4962156;28;20030;-58
2023/04/08 01:29:04;;;;;;;15.52;10.55;;;;;;;;;;4971239;28;20033;-52
2023/04/08 01:31:30;;;;;;;13.18;9.85;;;;;;;;;;4966706;28;20030;-55
2023/04/08 01:33:57;;;;;;;13.75;10.02;;;;;;;;;;4967691;28;20064;-57
2023/04/08 01:36:23;;;;;;;15.18;10.13;;;;;;;;;;4963216;28;20044;-56
2023/04/08 01:38:49;;;;;;;13.70;9.50;;;;;;;;;;4966222;28;20031;-53
2023/04/08 01:41:16;;;;;;;12.52;8.77;;;;;;;;;;4961369;28;20038;-54
2023/04/08 01:43:42;;;;;;;13.70;9.15;;;;;;;;;;4955677;28;20121;-54
2023/04/08 01:46:09;;;;;;;13.98;9.15;;;;;;;;;;4967270;28;20034;-54
2023/04/08 01:48:34;;;;;;;12.68;9.07;;;;;;;;;;4953203;28;20364;-55
2023/04/08 01:51:02;;;;;;;12.45;8.75;;;;;;;;;;4970258;28;20924;-54
2023/04/08 01:53:27;;;;;;;13.50;9.50;;;;;;;;;;4967541;28;20811;-55
2023/04/08 01:55:56;;;;;;;12.75;9.23;;;;;;;;;;4976858;28;20507;-54
2023/04/08 01:58:21;;;;;;;12.75;9.05;;;;;;;;;;4967152;28;20484;-54
2023/04/08 02:00:47;;;;;;;12.38;8.75;;;;;;;;;;4969044;28;20035;-52
2023/04/08 02:03:13;;;;;;;12.77;8.40;;;;;;;;;;4965689;28;20045;-53
2023/04/08 02:05:39;;;;;;;11.43;8.73;;;;;;;;;;4972583;28;20030;-53
2023/04/08 02:08:05;;;;;;;11.60;7.95;;;;;;;;;;4965326;28;20034;-55
2023/04/08 02:10:30;;;;;;;12.18;8.30;;;;;;;;;;4968603;28;20025;-57
2023/04/08 02:12:56;;;;;;;13.25;8.07;;;;;;;;;;4957606;28;20070;-50
2023/04/08 02:15:21;;;;;;;11.15;7.82;;;;;;;;;;4971816;28;20061;-49
2023/04/08 02:17:59;;;;;;;9.70;7.22;;;;;;;;;;4972256;28;20039;-56
2023/04/08 02:20:36;;;;;;;10.52;7.50;;;;;;;;;;4969341;28;20676;-59
2023/04/08 02:23:08;;;;;;;11.75;7.47;;;;;;;;;;4968038;28;20501;-51
2023/04/08 02:25:37;;;;;;;12.13;8.20;;;;;;;;;;4982481;28;20130;-51
2023/04/08 02:28:04;;;;;;;11.05;7.72;;;;;;;;;;4964495;28;20035;-50
2023/04/08 02:30:31;;;;;;;12.13;8.77;;;;;;;;;;4967707;28;20027;-54
2023/04/08 02:32:57;;;;;;;13.23;9.20;;;;;;;;;;4965116;28;20034;-48
2023/04/08 02:35:22;;;;;;;12.98;9.57;;;;;;;;;;4968714;28;20497;-48
2023/04/08 02:37:49;;;;;;;13.23;9.30;;;;;;;;;;4984263;28;20455;-51
2023/04/08 02:40:25;;;;;;;13.02;9.48;;;;;;;;;;4965464;28;20035;-53
2023/04/08 02:42:50;;;;;;;12.65;9.90;;;;;;;;;;4970124;28;21148;-53
2023/04/08 02:45:16;;;;;;;12.98;9.88;;;;;;;;;;4981913;28;20555;-56
2023/04/08 02:47:42;;;;;;;12.43;9.45;;;;;;;;;;4973953;28;20383;-52
2023/04/08 02:50:07;;;;;;;15.43;9.77;;;;;;;;;;4967743;28;20513;-57
2023/04/08 02:52:32;;;;;;;13.98;9.85;;;;;;;;;;4967753;28;20034;-52
2023/04/08 02:54:58;;;;;;;13.23;10.07;;;;;;;;;;4963549;28;20072;-54
2023/04/08 02:57:23;;;;;;;15.18;10.95;;;;;;;;;;4971510;28;20027;-54
2023/04/08 02:59:48;;;;;;;15.50;10.27;;;;;;;;;;4967741;28;20042;-55
2023/04/08 03:02:14;;;;;;;17.05;11.02;;;;;;;;;;4962803;28;20093;-56
2023/04/08 03:04:39;;;;;;;17.98;11.85;;;;;;;;;;4965797;28;20038;-49
2023/04/08 03:07:05;;;;;;;14.43;11.05;;;;;;;;;;4972156;28;20038;-52
2023/04/08 03:09:30;;;;;;;15.10;11.00;;;;;;;;;;4966423;28;20082;-57
2023/04/08 03:11:56;;;;;;;16.73;11.40;;;;;;;;;;4965315;28;20034;-56
2023/04/08 03:14:21;;;;;;;16.02;11.10;;;;;;;;;;4969657;28;20062;-56
2023/04/08 03:16:46;;;;;;;17.50;12.07;;;;;;;;;;4967994;28;20042;-55
2023/04/08 03:19:12;;;;;;;19.15;12.88;;;;;;;;;;4967285;28;20041;-55
2023/04/08 03:21:37;;;;;;;17.67;12.25;;;;;;;;;;4967413;28;20031;-52
2023/04/08 03:24:02;;;;;;;17.08;12.90;;;;;;;;;;4963203;28;20042;-57
2023/04/08 03:26:28;;;;;;;18.13;11.70;;;;;;;;;;4968657;28;20487;-56
2023/04/08 03:28:53;;;;;;;19.55;13.30;;;;;;;;;;4962366;28;20031;-55
2023/04/08 03:31:20;;;;;;;20.20;13.93;;;;;;;;;;4966804;28;20122;-58
2023/04/08 03:33:45;;;;;;;17.35;12.80;;;;;;;;;;4969867;28;20104;-55
2023/04/08 03:36:11;;;;;;;17.17;12.73;;;;;;;;;;4962553;28;20913;-54
2023/04/08 03:38:36;;;;;;;19.85;14.32;;;;;;;;;;4970782;28;20038;-51
2023/04/08 03:41:01;;;;;;;21.13;13.82;;;;;;;;;;4972271;28;20030;-53
2023/04/08 03:43:27;;;;;;;21.15;14.15;;;;;;;;;;4965555;28;20039;-54
2023/04/08 03:45:52;;;;;;;22.95;14.55;;;;;;;;;;4968095;28;20038;-55
2023/04/08 03:48:17;;;;;;;22.00;14.55;;;;;;;;;;4967608;28;20506;-51
2023/04/08 03:50:42;;;;;;;24.73;15.35;;;;;;;;;;4970738;28;20031;-59
2023/04/08 03:53:10;;;;;;;21.42;14.55;;;;;;;;;;4964614;28;20046;-56
2023/04/08 03:55:35;;;;;;;20.10;13.65;;;;;;;;;;4970377;28;20518;-55
2023/04/08 03:58:01;;;;;;;24.55;15.75;;;;;;;;;;4967483;28;20042;-52
2023/04/08 04:00:26;;;;;;;23.63;15.93;;;;;;;;;;4966992;28;20051;-53
2023/04/08 04:02:51;;;;;;;25.35;16.65;;;;;;;;;;4965453;28;20045;-56
2023/04/08 04:05:17;;;;;;;26.67;17.15;;;;;;;;;;4965869;28;20034;-57
2023/04/08 04:07:42;;;;;;;27.25;17.45;;;;;;;;;;4967147;28;20043;-52
2023/04/08 04:10:07;;;;;;;28.23;18.40;;;;;;;;;;4967129;28;20041;-57
2023/04/08 04:12:33;;;;;;;27.25;17.50;;;;;;;;;;4964823;28;20123;-56
2023/04/08 04:14:58;;;;;;;27.70;17.77;;;;;;;;;;4966433;28;20400;-55
2023/04/08 04:17:23;;;;;;;28.83;18.15;;;;;;;;;;4965789;28;20046;-54
2023/04/08 04:19:49;;;;;;;28.77;17.88;;;;;;;;;;4965096;28;20376;-58
2023/04/08 04:22:14;;;;;;;28.20;17.20;;;;;;;;;;4966584;28;20495;-57
2023/04/08 04:24:39;;;;;;;27.60;17.77;;;;;;;;;;4964427;28;20035;-58
2023/04/08 04:27:05;;;;;;;27.60;17.40;;;;;;;;;;4965412;28;20027;-54
2023/04/08 04:29:30;;;;;;;26.38;16.65;;;;;;;;;;4965364;28;20442;-58
2023/04/08 04:31:56;;;;;;;31.48;17.80;;;;;;;;;;4965145;28;20470;-57
2023/04/08 04:34:21;;;;;;;28.45;19.02;;;;;;;;;;4968395;28;20284;-52
2023/04/08 04:36:46;;;;;;;27.50;17.45;;;;;;;;;;4966746;28;20423;-57
2023/04/08 04:39:11;;;;;;;27.83;17.23;;;;;;;;;;4964167;28;20050;-52
2023/04/08 04:41:37;;;;;;;25.38;16.05;;;;;;;;;;4965542;28;20058;-56
2023/04/08 04:44:03;;;;;;;26.55;16.88;;;;;;;;;;4967411;28;20045;-57
2023/04/08 04:46:28;;;;;;;28.73;18.15;;;;;;;;;;4966464;28;20026;-56
2023/04/08 04:48:53;;;;;;;23.52;15.88;;;;;;;;;;4962568;28;20042;-57
2023/04/08 04:51:19;;;;;;;23.55;15.82;;;;;;;;;;4960187;28;20162;-55
2023/04/08 04:53:44;;;;;;;27.77;17.15;;;;;;;;;;4962769;28;20235;-55
2023/04/08 04:56:09;;;;;;;28.65;17.42;;;;;;;;;;4965718;28;20902;-56
2023/04/08 04:58:35;;;;;;;26.05;17.10;;;;;;;;;;4968701;28;20035;-52
2023/04/08 05:01:00;;;;;;;22.35;14.70;;;;;;;;;;4964070;28;20507;-59
2023/04/08 05:03:26;;;;;;;23.35;15.25;;;;;;;;;;4964310;28;20046;-53
2023/04/08 05:05:51;;;;;;;24.25;15.70;;;;;;;;;;4964230;28;20042;-56
2023/04/08 05:08:17;;;;;;;20.45;14.27;;;;;;;;;;4965630;28;20035;-56
2023/04/08 05:10:42;;;;;;;23.13;14.18;;;;;;;;;;4965163;28;20038;-56
2023/04/08 05:13:07;;;;;;;21.08;14.57;;;;;;;;;;4962948;28;20045;-56
2023/04/08 05:15:33;;;;;;;23.25;14.68;;;;;;;;;;4966517;28;20047;-57
2023/04/08 05:17:58;;;;;;;24.92;15.48;;;;;;;;;;4967005;28;20254;-52
2023/04/08 05:20:23;;;;;;;23.52;15.40;;;;;;;;;;4963241;28;20034;-55
2023/04/08 05:22:49;;;;;;;26.92;16.08;;;;;;;;;;4963706;28;20062;-51
2023/04/08 05:25:14;;;;;;;23.42;15.40;;;;;;;;;;4967964;28;20027;-51
2023/04/08 05:27:39;;;;;;;22.98;16.00;;;;;;;;;;4972242;28;20044;-55
2023/04/08 05:30:05;;;;;;;23.52;16.00;;;;;;;;;;4965752;28;20037;-57
2023/04/08 05:32:30;;;;;;;26.55;15.60;;;;;;;;;;4968548;28;20554;-57
2023/04/08 05:34:56;;;;;;;27.88;15.13;;;;;;;;;;4965052;28;20629;-55
2023/04/08 05:37:21;;;;;;;23.05;14.77;;;;;;;;;;4971298;28;20035;-58
2023/04/08 05:39:46;;;;;;;21.33;14.27;;;;;;;;;;4949439;28;20042;-54
2023/04/08 05:42:12;;;;;;;25.15;15.13;;;;;;;;;;4966964;28;20479;-55
2023/04/08 05:44:40;;;;;;;24.42;16.70;;;;;;;;;;4969249;28;20100;-54
2023/04/08 05:47:05;;;;;;;;;;;;;;;;;;4967181;28;20041;-53
2023/04/08 05:49:30;;;;;;;25.97;15.40;;;;;;;;;;4967854;28;20662;-59
2023/04/08 05:51:55;;;;;;;21.08;13.90;;;;;;;;;;4968413;28;20044;-57
2023/04/08 05:54:21;;;;;;;22.38;14.40;;;;;;;;;;4967802;28;20038;-54
2023/04/08 05:56:47;;;;;;;19.77;13.32;;;;;;;;;;4978189;28;20027;-56
2023/04/08 05:59:13;;;;;;;19.50;13.67;;;;;;;;;;4963440;28;20553;-52
2023/04/08 06:01:38;;;;;;;21.15;14.23;;;;;;;;;;4970111;28;20308;-55
2023/04/08 06:04:03;;;;;;;21.70;14.52;;;;;;;;;;4965745;28;20161;-57
2023/04/08 06:06:29;;;;;;;19.13;13.10;;;;;;;;;;4969484;28;20054;-58
2023/04/08 06:08:54;;;;;;;22.27;14.98;;;;;;;;;;4972151;28;20034;-56
2023/04/08 06:11:19;;;;;;;20.77;13.75;;;;;;;;;;4969222;28;20134;-58
2023/04/08 06:13:45;;;;;;;22.05;14.60;;;;;;;;;;4971196;28;20042;-56
2023/04/08 06:16:11;;;;;;;22.67;15.02;;;;;;;;;;4969010;28;20027;-58
2023/04/08 06:18:36;;;;;;;22.75;15.05;;;;;;;;;;4972970;28;20084;-57
2023/04/08 06:21:01;;;;;;;19.67;13.57;;;;;;;;;;4969019;28;20586;-55
2023/04/08 06:23:27;;;;;;;19.73;13.35;;;;;;;;;;4967291;28;20118;-54
2023/04/08 06:25:52;;;;;;;18.48;13.20;;;;;;;;;;4965714;28;20027;-57
2023/04/08 06:28:17;;;;;;;19.88;12.63;;;;;;;;;;4951237;28;20605;-54
2023/04/08 06:30:43;;;;;;;20.15;13.25;;;;;;;;;;4964185;28;20041;-56
2023/04/08 06:33:08;;;;;;;19.50;12.98;;;;;;;;;;4963745;28;20034;-53
2023/04/08 06:35:33;;;;;;;21.35;13.75;;;;;;;;;;4968966;28;20567;-58
2023/04/08 06:37:59;;;;;;;19.02;13.63;;;;;;;;;;4964576;28;20472;-56
2023/04/08 06:40:24;;;;;;;20.27;13.85;;;;;;;;;;4967196;28;20041;-55
2023/04/08 06:42:49;;;;;;;19.38;12.85;;;;;;;;;;4967399;28;20093;-54
2023/04/08 06:45:31;;;;;;;16.63;11.65;;;;;;;;;;4966100;28;20035;-57
2023/04/08 06:47:56;;;;;;;18.55;12.27;;;;;;;;;;4964917;28;20042;-56
2023/04/08 06:50:22;;;;;;;16.55;11.63;;;;;;;;;;4965951;28;20026;-54
2023/04/08 06:52:47;;;;;;;17.10;12.00;;;;;;;;;;4966212;28;20088;-57
2023/04/08 06:55:12;;;;;;;13.93;10.15;;;;;;;;;;4971301;28;20034;-56
2023/04/08 06:57:37;;;;;;;16.48;10.75;;;;;;;;;;4967833;28;20035;-57
2023/04/08 07:00:03;;;;;;;14.30;10.38;;;;;;;;;;4969030;28;20110;-55
2023/04/08 07:02:28;;;;;;;16.05;11.50;;;;;;;;;;4967264;28;20041;-54
2023/04/08 07:04:54;;;;;;;15.90;10.52;;;;;;;;;;4968103;28;20027;-57
2023/04/08 07:07:19;;;;;;;15.35;10.75;;;;;;;;;;4967244;28;20074;-52
2023/04/08 07:09:47;;;;;;;18.88;11.52;;;;;;;;;;4967582;28;20027;-56
2023/04/08 07:12:12;;;;;;;15.88;10.77;;;;;;;;;;4969851;28;20038;-53
2023/04/08 07:14:38;;;;;;;15.15;10.15;;;;;;;;;;4971575;28;20050;-53
2023/04/08 07:17:03;;;;;;;14.55;10.18;;;;;;;;;;4965694;28;20046;-50
2023/04/08 07:19:28;;;;;;;13.95;10.05;;;;;;;;;;4974413;28;20030;-53
2023/04/08 07:21:54;;;;;;;15.52;9.75;;;;;;;;;;4974184;28;20031;-55
2023/04/08 07:24:19;;;;;;;13.85;10.05;;;;;;;;;;4972190;28;20082;-54
2023/04/08 07:26:45;;;;;;;13.27;10.00;;;;;;;;;;4968850;28;20031;-57
2023/04/08 07:29:10;;;;;;;15.00;10.57;;;;;;;;;;4966371;28;20030;-57
2023/04/08 07:31:35;;;;;;;14.70;11.50;;;;;;;;;;4971224;28;20069;-55
2023/04/08 07:34:00;;;;;;;14.05;9.98;;;;;;;;;;4974307;28;20578;-58
2023/04/08 07:36:27;;;;;;;14.38;9.75;;;;;;;;;;4959301;28;20092;-60
2023/04/08 07:38:52;;;;;;;14.80;10.85;;;;;;;;;;4962393;28;20122;-58
2023/04/08 07:41:17;;;;;;;16.15;10.18;;;;;;;;;;4959148;28;20106;-55
2023/04/08 07:43:43;;;;;;;16.50;11.07;;;;;;;;;;4954638;28;20058;-54
2023/04/08 07:46:08;;;;;;;15.73;10.57;;;;;;;;;;4963892;28;20057;-57
2023/04/08 07:48:34;;;;;;;16.52;10.85;;;;;;;;;;4967325;28;20042;-58
2023/04/08 07:51:03;;;;;;;14.50;10.35;;;;;;;;;;4961617;28;20045;-58
2023/04/08 07:53:29;;;;;;;16.10;11.02;;;;;;;;;;4960422;28;20038;-57
2023/04/08 07:55:54;;;;;;;18.17;11.70;;;;;;;;;;4963394;28;20406;-53
2023/04/08 07:58:19;;;;;;;15.45;10.38;;;;;;;;;;4961822;28;20027;-51
2023/04/08 08:00:45;;;;;;;14.38;10.05;;;;;;;;;;4962176;28;20031;-58
2023/04/08 08:03:10;;;;;;;18.00;11.38;;;;;;;;;;4969628;28;20039;-51
2023/04/08 08:05:36;;;;;;;16.95;10.90;;;;;;;;;;4965474;28;20567;-57
2023/04/08 08:08:02;;;;;;;16.23;10.95;;;;;;;;;;4965742;28;20403;-52
2023/04/08 08:10:27;;;;;;;14.90;11.68;;;;;;;;;;4957359;28;20031;-56
2023/04/08 08:12:52;;;;;;;13.45;10.07;;;;;;;;;;4962375;28;20558;-56
2023/04/08 08:15:17;;;;;;;14.88;10.52;;;;;;;;;;4963891;28;20062;-57
2023/04/08 08:17:43;;;;;;;15.20;10.55;;;;;;;;;;4958448;28;20039;-54
2023/04/08 08:20:09;;;;;;;14.73;10.57;;;;;;;;;;4969999;28;20468;-52
2023/04/08 08:22:34;;;;;;;14.07;10.52;;;;;;;;;;4959330;28;20785;-58
2023/04/08 08:25:00;;;;;;;15.00;10.23;;;;;;;;;;4958248;28;20035;-57
2023/04/08 08:27:25;;;;;;;15.65;10.80;;;;;;;;;;4962038;28;20034;-54
2023/04/08 08:29:51;;;;;;;13.45;10.25;;;;;;;;;;4961895;28;20067;-52
2023/04/08 08:32:17;;;;;;;15.50;10.77;;;;;;;;;;4966176;28;20131;-53
2023/04/08 08:34:42;;;;;;;12.95;9.88;;;;;;;;;;4956987;28;20038;-53
2023/04/08 08:37:07;;;;;;;17.25;11.27;;;;;;;;;;4962092;28;20026;-57
2023/04/08 08:39:32;;;;;;;13.40;10.02;;;;;;;;;;4965481;28;20121;-56
2023/04/08 08:41:58;;;;;;;15.63;9.52;;;;;;;;;;4960174;28;20359;-56
2023/04/08 08:44:23;;;;;;;15.20;10.70;;;;;;;;;;4961785;28;20077;-53
2023/04/08 08:46:48;;;;;;;15.35;10.52;;;;;;;;;;4958540;28;20039;-56
2023/04/08 08:49:14;;;;;;;13.57;9.63;;;;;;;;;;4961421;28;20042;-56
2023/04/08 08:51:40;;;;;;;14.60;10.40;;;;;;;;;;4964358;28;20042;-52
2023/04/08 08:54:05;;;;;;;12.73;9.85;;;;;;;;;;4963861;28;20047;-56
2023/04/08 08:56:34;;;;;;;12.80;9.40;;;;;;;;;;4964211;28;20374;-56
2023/04/08 08:58:59;;;;;;;15.65;10.68;;;;;;;;;;4933031;28;20073;-58
2023/04/08 09:01:31;;;;;;;16.77;10.45;;;;;;;;;;4965929;28;20401;-55
2023/04/08 09:04:16;;;;;;;15.80;10.82;;;;;;;;;;4964784;28;20047;-59
2023/04/08 09:06:42;;;;;;;16.13;10.77;;;;;;;;;;4965671;28;20038;-56
2023/04/08 09:09:09;;;;;;;16.83;10.55;;;;;;;;;;4969029;28;20031;-58
2023/04/08 09:11:35;;;;;;;15.75;10.60;;;;;;;;;;4967490;28;20037;-56
2023/04/08 09:14:00;;;;;;;14.88;9.73;;;;;;;;;;4966210;28;20062;-56
2023/04/08 09:16:26;;;;;;;14.63;9.75;;;;;;;;;;4967533;28;20065;-56
2023/04/08 09:18:52;;;;;;;16.53;10.40;;;;;;;;;;4959608;28;20114;-58
2023/04/08 09:21:21;;;;;;;14.35;10.05;;;;;;;;;;4959185;28;20125;-53
2023/04/08 09:23:50;;;;;;;17.25;10.32;;;;;;;;;;4984634;28;20053;-55
2023/04/08 09:26:23;;;;;;;17.35;10.00;;;;;;;;;;4968559;28;20047;-54
2023/04/08 09:29:01;;;;;;;18.10;9.90;;;;;;;;;;4965850;28;20524;-57
2023/04/08 09:31:30;;;;;;;11.88;8.10;;;;;;;;;;4963072;28;20628;-57
2023/04/08 09:33:59;;;;;;;12.13;8.65;;;;;;;;;;4962329;28;20038;-57
2023/04/08 09:36:28;;;;;;;13.25;8.98;;;;;;;;;;4966765;28;20026;-54
2023/04/08 09:38:54;;;;;;;14.90;8.80;;;;;;;;;;4959334;28;20072;-55
2023/04/08 09:41:20;;;;;;;12.25;8.07;;;;;;;;;;4967523;28;20038;-54
2023/04/08 09:43:49;;;;;;;14.25;8.43;;;;;;;;;;4962992;28;20721;-53
2023/04/08 09:46:15;;;;;;;14.68;8.63;;;;;;;;;;4978627;28;20058;-53
2023/04/08 09:49:01;;;;;;;11.32;8.10;;;;;;;;;;4967184;28;20031;-55
2023/04/08 09:51:28;;;;;;;13.38;8.20;;;;;;;;;;4953204;28;20475;-53
2023/04/08 09:53:59;;;;;;;12.65;8.05;;;;;;;;;;4961799;28;20039;-55
2023/04/08 09:56:29;;;;;;;14.60;8.32;;;;;;;;;;4965379;28;20035;-55
2023/04/08 09:58:58;;;;;;;12.35;8.38;;;;;;;;;;4960721;28;20125;-54
2023/04/08 10:01:27;;;;;;;17.27;8.45;;;;;;;;;;4966534;28;20057;-55
2023/04/08 10:03:55;;;;;;;12.63;8.27;;;;;;;;;;4963806;28;20133;-55
2023/04/08 10:06:21;;;;;;;13.80;8.15;;;;;;;;;;4965077;28;20058;-57
2023/04/08 10:08:47;;;;;;;14.55;8.88;;;;;;;;;;4971474;28;20138;-56
2023/04/08 10:11:14;;;;;;;11.45;7.72;;;;;;;;;;4960792;28;20027;-56
2023/04/08 10:13:39;;;;;;;20.70;9.15;;;;;;;;;;4968040;28;20149;-55
2023/04/08 10:16:21;;;;;;;13.90;8.50;;;;;;;;;;4964819;28;20030;-54
2023/04/08 10:18:48;;;;;;;13.70;8.60;;;;;;;;;;4963922;28;20329;-56
2023/04/08 10:21:33;;;;;;;11.35;9.07;;;;;;;;;;4969632;28;20030;-53
2023/04/08 10:23:59;;;;;;;11.52;8.00;;;;;;;;;;4961356;28;20562;-56
2023/04/08 10:26:38;;;;;;;11.48;8.02;;;;;;;;;;4963884;28;20471;-55
2023/04/08 10:29:29;;;;;;;11.25;7.20;;;;;;;;;;4968875;28;20050;-54
2023/04/08 10:31:56;;;;;;;12.20;8.30;;;;;;;;;;4961118;28;20098;-55
2023/04/08 10:34:23;;;;;;;14.15;8.40;;;;;;;;;;4958695;28;20031;-56
2023/04/08 10:36:49;;;;;;;11.25;8.07;;;;;;;;;;4961384;28;20390;-57
2023/04/08 10:39:15;;;;;;;14.25;8.15;;;;;;;;;;4958591;28;20041;-56
2023/04/08 10:41:42;;;;;;;12.40;7.97;;;;;;;;;;4966860;28;20045;-56
2023/04/08 10:44:21;;;;;;;10.77;7.53;;;;;;;;;;4961120;28;20054;-54
2023/04/08 10:46:47;;;;;;;11.70;7.28;;;;;;;;;;4961789;28;20472;-53
2023/04/08 10:49:13;;;;;;;10.25;7.85;;;;;;;;;;4974386;28;20374;-55
2023/04/08 10:51:38;;;;;;;10.30;7.50;;;;;;;;;;4962512;28;20031;-52
2023/04/08 10:54:11;;;;;;;11.93;8.32;;;;;;;;;;4960790;28;20318;-57
2023/04/08 10:56:42;;;;;;;12.43;7.20;;;;;;;;;;4965772;28;20030;-55
2023/04/08 10:59:08;;;;;;;14.38;7.97;;;;;;;;;;4968074;28;20542;-53
2023/04/08 11:01:38;;;;;;;13.00;7.65;;;;;;;;;;4963706;28;20468;-57
2023/04/08 11:04:06;;;;;;;11.20;6.88;;;;;;;;;;4958027;28;20039;-57
2023/04/08 11:06:35;;;;;;;12.98;7.30;;;;;;;;;;4958896;28;20038;-56
2023/04/08 11:09:01;;;;;;;11.77;7.80;;;;;;;;;;4969068;28;20399;-56
2023/04/08 11:11:28;;;;;;;11.63;7.20;;;;;;;;;;4962108;28;20031;-54
2023/04/08 11:13:55;;;;;;;10.53;7.50;;;;;;;;;;4970961;28;20287;-57
2023/04/08 11:16:21;;;;;;;10.48;7.72;;;;;;;;;;4961853;28;20483;-55
2023/04/08 11:18:46;;;;;;;10.95;7.57;;;;;;;;;;4957463;28;20051;-53
2023/04/08 11:21:12;;;;;;;10.77;7.82;;;;;;;;;;4966257;28;20029;-55
2023/04/08 11:23:37;;;;;;;13.18;7.93;;;;;;;;;;4959239;28;20122;-54
2023/04/08 11:26:03;;;;;;;15.73;8.38;;;;;;;;;;4966286;28;20064;-55
2023/04/08 11:28:28;;;;;;;14.75;7.78;;;;;;;;;;4962220;28;20037;-57
2023/04/08 11:30:54;;;;;;;12.63;8.10;;;;;;;;;;4959379;28;20110;-54
2023/04/08 11:33:19;;;;;;;12.63;8.07;;;;;;;;;;4968933;28;20101;-52
2023/04/08 11:35:44;;;;;;;13.20;8.25;;;;;;;;;;4958455;28;20372;-54
2023/04/08 11:38:10;;;;;;;12.10;8.77;;;;;;;;;;4964205;28;20039;-57
2023/04/08 11:40:36;;;;;;;13.90;7.60;;;;;;;;;;4958867;28;20031;-55
2023/04/08 11:43:11;;;;;;;13.55;7.78;;;;;;;;;;4960314;28;20142;-55
2023/04/08 11:45:40;;;;;;;12.93;7.78;;;;;;;;;;4981569;28;20376;-56
2023/04/08 11:48:09;;;;;;;9.82;7.13;;;;;;;;;;4956156;28;20098;-56
2023/04/08 11:50:34;;;;;;;11.75;7.78;;;;;;;;;;4954215;28;20037;-58
2023/04/08 11:53:00;;;;;;;13.20;8.00;;;;;;;;;;4968064;28;20034;-53
2023/04/08 11:55:27;;;;;;;10.52;7.75;;;;;;;;;;4966407;28;20038;-56
2023/04/08 11:57:53;;;;;;;10.88;7.68;;;;;;;;;;4961405;28;20038;-55
2023/04/08 12:00:19;;;;;;;13.32;8.30;;;;;;;;;;4960797;28;20018;-54
2023/04/08 12:02:45;;;;;;;11.57;8.10;;;;;;;;;;4961935;28;20026;-57
2023/04/08 12:05:11;;;;;;;12.68;8.18;;;;;;;;;;4965727;28;20031;-56
2023/04/08 12:07:37;;;;;;;10.00;7.10;;;;;;;;;;4963806;28;20064;-56
2023/04/08 12:10:02;;;;;;;10.35;7.55;;;;;;;;;;4966772;28;20026;-53
2023/04/08 12:12:27;;;;;;;11.93;7.35;;;;;;;;;;4962230;28;20027;-56
2023/04/08 12:14:53;;;;;;;13.15;8.07;;;;;;;;;;4961917;28;20685;-55
2023/04/08 12:17:18;;;;;;;11.68;7.53;;;;;;;;;;4983715;28;20061;-57
2023/04/08 12:19:44;;;;;;;10.80;7.60;;;;;;;;;;4956253;28;20037;-55
2023/04/08 12:22:09;;;;;;;10.90;7.45;;;;;;;;;;4967292;28;20034;-56
2023/04/08 12:24:34;;;;;;;14.73;9.73;;;;;;;;;;4958818;28;20029;-56
2023/04/08 12:27:01;;;;;;;12.73;8.23;;;;;;;;;;4960643;28;20070;-56
2023/04/08 12:29:26;;;;;;;13.40;7.60;;;;;;;;;;4965861;28;20407;-56
2023/04/08 12:31:52;;;;;;;11.52;7.07;;;;;;;;;;4959451;28;20331;-58
2023/04/08 12:34:17;;;;;;;9.88;7.32;;;;;;;;;;4966720;28;20026;-54
2023/04/08 12:36:43;;;;;;;8.90;7.00;;;;;;;;;;4955267;28;20089;-53
2023/04/08 12:39:09;;;;;;;9.98;7.00;;;;;;;;;;4969339;28;20061;-55
2023/04/08 12:41:34;;;;;;;8.38;6.80;;;;;;;;;;4969897;28;20031;-56
2023/04/08 12:43:59;;;;;;;9.30;6.65;;;;;;;;;;4961627;28;20451;-59
2023/04/08 12:46:25;;;;;;;9.95;6.85;;;;;;;;;;4966155;28;20145;-57
2023/04/08 12:48:50;;;;;;;9.88;6.25;;;;;;;;;;4960304;28;20042;-53
2023/04/08 12:51:16;;;;;;;8.48;6.03;;;;;;;;;;4956838;28;20288;-55
2023/04/08 12:53:41;;;;;;;10.38;6.30;;;;;;;;;;4963576;28;20636;-53
2023/04/08 12:56:06;;;;;;;8.80;5.80;;;;;;;;;;4962965;28;20042;-58
2023/04/08 12:58:32;;;;;;;9.73;5.95;;;;;;;;;;4967372;28;20030;-57
2023/04/08 13:00:57;;;;;;;9.10;5.68;;;;;;;;;;4957242;28;20663;-55
2023/04/08 13:03:22;;;;;;;10.27;5.93;;;;;;;;;;4956079;28;21159;-59
2023/04/08 13:05:48;;;;;;;12.05;6.13;;;;;;;;;;4965488;28;20121;-52
2023/04/08 13:08:13;;;;;;;8.82;6.05;;;;;;;;;;4967376;28;20058;-57
2023/04/08 13:10:38;;;;;;;10.90;5.93;;;;;;;;;;4975608;28;20560;-57
2023/04/08 13:13:04;;;;;;;8.57;6.05;;;;;;;;;;4961044;28;20031;-56
2023/04/08 13:15:29;;;;;;;11.25;5.65;;;;;;;;;;4960193;28;20102;-54
2023/04/08 13:17:54;;;;;;;8.88;5.70;;;;;;;;;;4950869;28;20115;-57
2023/04/08 13:20:23;;;;;;;8.18;5.55;;;;;;;;;;4957842;28;20027;-56
2023/04/08 13:22:49;;;;;;;8.15;5.47;;;;;;;;;;4962681;28;20042;-58
2023/04/08 13:25:14;;;;;;;9.82;5.63;;;;;;;;;;4961924;28;20042;-59
2023/04/08 13:27:39;;;;;;;8.57;5.22;;;;;;;;;;4959407;28;20031;-55
2023/04/08 13:30:05;;;;;;;8.30;5.30;;;;;;;;;;4958861;28;20058;-60
2023/04/08 13:32:30;;;;;;;8.40;4.80;;;;;;;;;;4955856;28;20476;-56
2023/04/08 13:34:56;;;;;;;8.50;5.00;;;;;;;;;;4964434;28;20671;-57
2023/04/08 13:37:21;;;;;;;7.55;5.18;;;;;;;;;;4959154;28;20057;-58
2023/04/08 13:39:46;;;;;;;7.70;4.82;;;;;;;;;;4954751;28;20086;-57
2023/04/08 13:42:12;;;;;;;9.75;5.13;;;;;;;;;;4968339;28;20070;-57
2023/04/08 13:44:37;;;;;;;7.38;4.63;;;;;;;;;;4957572;28;20070;-54
2023/04/08 13:47:02;;;;;;;8.68;4.93;;;;;;;;;;4963502;28;20026;-57
2023/04/08 13:49:27;;;;;;;9.15;4.60;;;;;;;;;;4965344;28;20308;-57
2023/04/08 13:51:53;;;;;;;6.88;4.65;;;;;;;;;;4965790;28;20034;-52
2023/04/08 13:54:18;;;;;;;7.97;4.85;;;;;;;;;;4965470;28;20034;-55
2023/04/08 13:56:44;;;;;;;7.13;4.50;;;;;;;;;;4962403;28;20106;-56
2023/04/08 13:59:09;;;;;;;7.07;4.70;;;;;;;;;;4966267;28;20026;-58
2023/04/08 14:01:35;;;;;;;8.68;5.10;;;;;;;;;;4959100;28;20031;-54
2023/04/08 14:04:01;;;;;;;8.63;5.00;;;;;;;;;;4956342;28;20141;-58
2023/04/08 14:06:26;;;;;;;8.30;5.40;;;;;;;;;;4966233;28;20023;-55
2023/04/08 14:08:52;;;;;;;7.45;4.63;;;;;;;;;;4963529;28;20047;-57
2023/04/08 14:11:17;;;;;;;7.82;5.22;;;;;;;;;;4967954;28;20044;-56
2023/04/08 14:13:42;;;;;;;11.45;5.32;;;;;;;;;;4962230;28;20122;-55
2023/04/08 14:16:08;;;;;;;8.45;5.00;;;;;;;;;;4965922;28;20121;-56
2023/04/08 14:18:33;;;;;;;8.52;4.93;;;;;;;;;;4968269;28;20022;-55
2023/04/08 14:20:58;;;;;;;6.97;4.93;;;;;;;;;;4962031;28;20042;-58